sensor_id;sensor_type;location;lat;lon;timestamp;temperature;humidity
41168;DHT22;26906;45.658;9.272;2022-11-20T06:16:22;5.70;99.90
41168;DHT22;26906;45.658;9.272;2022-11-20T06:18:48;5.80;99.90
41168;DHT22;26906;45.658;9.272;2022-11-20T06:21:17;5.80;99.90
41168;DHT22;26906;45.658;9.272;2022-11-20T06:23:43;5.80;99.90
41168;DHT22;26906;45.658;9.272;2022-11-20T06:26:11;6.00;99.90
41168;DHT22;26906;45.658;9.272;2022-11-20T06:28:38;6.00;99.90
41168;DHT22;26906;45.658;9.272;2022-11-20T06:31:05;6.20;99.90
41168;DHT22;26906;45.658;9.272;2022-11-20T06:33:32;5.90;99.90
41168;DHT22;26906;45.658;9.272;2022-11-20T06:35:59;5.80;99.90
41168;DHT22;26906;45.658;9.272;2022-11-20T06:38:26;5.80;99.90
41168;DHT22;26906;45.658;9.272;2022-11-20T06:40:51;5.80;99.90
41168;DHT22;26906;45.658;9.272;2022-11-20T06:43:20;5.70;99.90
41168;DHT22;26906;45.658;9.272;2022-11-20T06:45:52;5.70;99.90
41168;DHT22;26906;45.658;9.272;2022-11-20T06:48:19;5.70;99.90
41168;DHT22;26906;45.658;9.272;2022-11-20T06:50:45;5.70;99.90
41168;DHT22;26906;45.658;9.272;2022-11-20T06:53:11;6.30;99.90
41168;DHT22;26906;45.658;9.272;2022-11-20T06:55:37;5.90;99.90
41168;DHT22;26906;45.658;9.272;2022-11-20T06:58:07;5.70;99.90
41168;DHT22;26906;45.658;9.272;2022-11-20T07:00:35;5.70;99.90
41168;DHT22;26906;45.658;9.272;2022-11-20T07:03:08;5.70;99.90
41168;DHT22;26906;45.658;9.272;2022-11-20T07:05:37;5.70;99.90
41168;DHT22;26906;45.658;9.272;2022-11-20T07:08:04;5.80;99.90
41168;DHT22;26906;45.658;9.272;2022-11-20T07:10:30;5.80;99.90
41168;DHT22;26906;45.658;9.272;2022-11-20T07:12:56;5.80;99.90
41168;DHT22;26906;45.658;9.272;2022-11-20T07:15:23;5.80;99.90
41168;DHT22;26906;45.658;9.272;2022-11-20T07:17:52;5.90;99.90
41168;DHT22;26906;45.658;9.272;2022-11-20T07:20:18;5.80;99.90
41168;DHT22;26906;45.658;9.272;2022-11-20T07:22:44;5.80;99.90
41168;DHT22;26906;45.658;9.272;2022-11-20T07:25:09;5.90;99.90
41168;DHT22;26906;45.658;9.272;2022-11-20T07:27:36;6.10;99.90
41168;DHT22;26906;45.658;9.272;2022-11-20T07:30:03;6.00;99.90
41168;DHT22;26906;45.658;9.272;2022-11-20T07:32:29;6.10;99.90
41168;DHT22;26906;45.658;9.272;2022-11-20T07:34:54;6.20;99.90
41168;DHT22;26906;45.658;9.272;2022-11-20T07:37:21;6.20;99.90
41168;DHT22;26906;45.658;9.272;2022-11-20T07:39:47;6.30;99.90
41168;DHT22;26906;45.658;9.272;2022-11-20T07:42:13;6.50;99.90
41168;DHT22;26906;45.658;9.272;2022-11-20T07:44:38;6.50;99.90
41168;DHT22;26906;45.658;9.272;2022-11-20T07:47:04;6.60;99.90
41168;DHT22;26906;45.658;9.272;2022-11-20T07:49:30;6.80;99.90
41168;DHT22;26906;45.658;9.272;2022-11-20T07:51:56;7.00;99.90
41168;DHT22;26906;45.658;9.272;2022-11-20T07:54:22;7.20;99.90
41168;DHT22;26906;45.658;9.272;2022-11-20T07:56:48;7.40;99.90
41168;DHT22;26906;45.658;9.272;2022-11-20T07:59:14;7.70;99.90
41168;DHT22;26906;45.658;9.272;2022-11-20T08:01:41;7.60;99.90
41168;DHT22;26906;45.658;9.272;2022-11-20T08:04:08;7.70;99.90
41168;DHT22;26906;45.658;9.272;2022-11-20T08:06:35;7.80;99.90
41168;DHT22;26906;45.658;9.272;2022-11-20T08:09:02;8.00;99.90
41168;DHT22;26906;45.658;9.272;2022-11-20T08:11:28;8.10;99.90
41168;DHT22;26906;45.658;9.272;2022-11-20T08:14:12;8.20;99.90
41168;DHT22;26906;45.658;9.272;2022-11-20T08:16:38;8.30;99.90
41168;DHT22;26906;45.658;9.272;2022-11-20T08:19:04;8.50;99.90
41168;DHT22;26906;45.658;9.272;2022-11-20T08:21:33;8.60;99.90
41168;DHT22;26906;45.658;9.272;2022-11-20T08:23:59;8.70;99.90
41168;DHT22;26906;45.658;9.272;2022-11-20T08:26:25;9.00;99.90
41168;DHT22;26906;45.658;9.272;2022-11-20T08:28:56;9.10;99.90
41168;DHT22;26906;45.658;9.272;2022-11-20T08:31:23;9.20;99.90
41168;DHT22;26906;45.658;9.272;2022-11-20T08:33:49;9.40;99.90
41168;DHT22;26906;45.658;9.272;2022-11-20T08:36:15;9.50;99.90
41168;DHT22;26906;45.658;9.272;2022-11-20T08:38:41;9.70;99.90
41168;DHT22;26906;45.658;9.272;2022-11-20T08:41:07;9.80;99.90
41168;DHT22;26906;45.658;9.272;2022-11-20T08:43:53;10.00;99.90
41168;DHT22;26906;45.658;9.272;2022-11-20T08:46:19;10.10;99.90
41168;DHT22;26906;45.658;9.272;2022-11-20T08:48:45;10.20;99.90
41168;DHT22;26906;45.658;9.272;2022-11-20T08:51:11;10.40;99.90
41168;DHT22;26906;45.658;9.272;2022-11-20T08:53:38;10.60;99.90
41168;DHT22;26906;45.658;9.272;2022-11-20T08:56:04;10.70;99.90
41168;DHT22;26906;45.658;9.272;2022-11-20T08:58:30;10.80;99.90
41168;DHT22;26906;45.658;9.272;2022-11-20T09:00:56;10.90;99.90
41168;DHT22;26906;45.658;9.272;2022-11-20T09:03:22;11.10;99.90
41168;DHT22;26906;45.658;9.272;2022-11-20T09:05:48;11.30;99.90
41168;DHT22;26906;45.658;9.272;2022-11-20T09:08:14;11.40;99.90
41168;DHT22;26906;45.658;9.272;2022-11-20T09:10:39;11.60;99.90
41168;DHT22;26906;45.658;9.272;2022-11-20T09:13:05;11.70;99.90
41168;DHT22;26906;45.658;9.272;2022-11-20T09:15:31;11.80;99.90
41168;DHT22;26906;45.658;9.272;2022-11-20T09:18:02;11.90;99.90
41168;DHT22;26906;45.658;9.272;2022-11-20T09:20:29;12.10;99.90
41168;DHT22;26906;45.658;9.272;2022-11-20T09:22:56;12.30;99.90
41168;DHT22;26906;45.658;9.272;2022-11-20T09:25:22;12.40;99.90
41168;DHT22;26906;45.658;9.272;2022-11-20T09:27:48;12.40;99.90
41168;DHT22;26906;45.658;9.272;2022-11-20T09:30:19;12.50;99.90
41168;DHT22;26906;45.658;9.272;2022-11-20T09:32:45;12.60;99.90
41168;DHT22;26906;45.658;9.272;2022-11-20T09:35:11;12.70;99.90
41168;DHT22;26906;45.658;9.272;2022-11-20T09:37:37;12.80;99.90
41168;DHT22;26906;45.658;9.272;2022-11-20T09:40:03;12.90;99.90
41168;DHT22;26906;45.658;9.272;2022-11-20T09:42:41;12.90;99.90
41168;DHT22;26906;45.658;9.272;2022-11-20T09:45:23;13.00;99.90
41168;DHT22;26906;45.658;9.272;2022-11-20T09:48:20;13.00;99.90
41168;DHT22;26906;45.658;9.272;2022-11-20T09:56:15;13.30;99.90
41168;DHT22;26906;45.658;9.272;2022-11-20T09:58:47;13.50;99.90
41168;DHT22;26906;45.658;9.272;2022-11-20T10:01:16;13.70;99.90
41168;DHT22;26906;45.658;9.272;2022-11-20T10:04:18;13.80;99.90
41168;DHT22;26906;45.658;9.272;2022-11-20T10:07:19;13.90;99.90
41168;DHT22;26906;45.658;9.272;2022-11-20T10:09:54;13.90;99.90
41168;DHT22;26906;45.658;9.272;2022-11-20T10:21:03;13.80;99.90
41168;DHT22;26906;45.658;9.272;2022-11-20T10:26:34;14.10;99.90
41168;DHT22;26906;45.658;9.272;2022-11-20T10:29:12;14.10;99.90
41168;DHT22;26906;45.658;9.272;2022-11-20T10:31:54;14.20;99.90
41168;DHT22;26906;45.658;9.272;2022-11-20T10:37:15;14.40;99.90
41168;DHT22;26906;45.658;9.272;2022-11-20T10:39:50;14.40;99.90
41168;DHT22;26906;45.658;9.272;2022-11-20T10:42:43;14.50;99.90
41168;DHT22;26906;45.658;9.272;2022-11-20T10:47:54;14.80;99.90
41168;DHT22;26906;45.658;9.272;2022-11-20T10:50:21;14.90;99.90
41168;DHT22;26906;45.658;9.272;2022-11-20T10:53:08;14.70;99.90
41168;DHT22;26906;45.658;9.272;2022-11-20T10:55:54;14.70;99.90
41168;DHT22;26906;45.658;9.272;2022-11-20T10:58:41;14.60;99.90
41168;DHT22;26906;45.658;9.272;2022-11-20T11:01:18;14.70;99.90
41168;DHT22;26906;45.658;9.272;2022-11-20T11:03:47;14.90;99.90
41168;DHT22;26906;45.658;9.272;2022-11-20T11:08:58;15.20;99.90
41168;DHT22;26906;45.658;9.272;2022-11-20T11:11:33;15.20;99.90
41168;DHT22;26906;45.658;9.272;2022-11-20T11:14:13;15.30;99.90
41168;DHT22;26906;45.658;9.272;2022-11-20T11:17:17;15.40;99.90
41168;DHT22;26906;45.658;9.272;2022-11-20T11:19:43;15.50;99.90
41168;DHT22;26906;45.658;9.272;2022-11-20T11:22:16;15.50;99.90
41168;DHT22;26906;45.658;9.272;2022-11-20T11:24:52;15.50;99.90
41168;DHT22;26906;45.658;9.272;2022-11-20T11:27:18;15.60;99.90
41168;DHT22;26906;45.658;9.272;2022-11-20T11:29:45;15.60;99.90
41168;DHT22;26906;45.658;9.272;2022-11-20T11:32:19;15.70;99.90
41168;DHT22;26906;45.658;9.272;2022-11-20T11:35:05;15.90;99.90
41168;DHT22;26906;45.658;9.272;2022-11-20T11:37:37;16.00;99.90
41168;DHT22;26906;45.658;9.272;2022-11-20T11:40:05;16.00;99.90
41168;DHT22;26906;45.658;9.272;2022-11-20T11:42:31;15.90;99.90
41168;DHT22;26906;45.658;9.272;2022-11-20T11:44:59;16.00;99.90
41168;DHT22;26906;45.658;9.272;2022-11-20T11:47:45;16.00;99.90
41168;DHT22;26906;45.658;9.272;2022-11-20T12:00:50;16.20;99.90
41168;DHT22;26906;45.658;9.272;2022-11-20T12:03:33;16.30;99.90
41168;DHT22;26906;45.658;9.272;2022-11-20T12:06:06;16.20;99.90
41168;DHT22;26906;45.658;9.272;2022-11-20T12:08:53;16.30;99.90
41168;DHT22;26906;45.658;9.272;2022-11-20T12:14:21;16.30;99.90
41168;DHT22;26906;45.658;9.272;2022-11-20T12:16:52;16.40;99.90
41168;DHT22;26906;45.658;9.272;2022-11-20T12:19:18;16.40;99.90
41168;DHT22;26906;45.658;9.272;2022-11-20T12:22:26;16.40;99.90
41168;DHT22;26906;45.658;9.272;2022-11-20T12:27:50;16.40;99.90
41168;DHT22;26906;45.658;9.272;2022-11-20T12:30:21;16.50;99.90
41168;DHT22;26906;45.658;9.272;2022-11-20T12:38:35;16.60;99.90
41168;DHT22;26906;45.658;9.272;2022-11-20T12:47:28;16.40;99.90
41168;DHT22;26906;45.658;9.272;2022-11-20T12:52:56;16.70;99.90
41168;DHT22;26906;45.658;9.272;2022-11-20T13:07:16;16.40;99.90
41168;DHT22;26906;45.658;9.272;2022-11-20T13:09:47;16.50;99.90
41168;DHT22;26906;45.658;9.272;2022-11-20T13:12:44;16.60;99.90
41168;DHT22;26906;45.658;9.272;2022-11-20T13:17:47;16.60;99.90
41168;DHT22;26906;45.658;9.272;2022-11-20T13:20:20;16.60;99.90
41168;DHT22;26906;45.658;9.272;2022-11-20T13:22:47;16.50;99.90
41168;DHT22;26906;45.658;9.272;2022-11-20T13:25:28;16.40;99.90
41168;DHT22;26906;45.658;9.272;2022-11-20T13:27:55;16.50;99.90
41168;DHT22;26906;45.658;9.272;2022-11-20T13:30:23;16.50;99.90
41168;DHT22;26906;45.658;9.272;2022-11-20T13:35:33;16.40;99.90
41168;DHT22;26906;45.658;9.272;2022-11-20T13:38:10;16.30;99.90
41168;DHT22;26906;45.658;9.272;2022-11-20T13:40:39;16.30;99.90
41168;DHT22;26906;45.658;9.272;2022-11-20T13:46:12;16.20;99.90
41168;DHT22;26906;45.658;9.272;2022-11-20T13:48:46;16.30;99.90
41168;DHT22;26906;45.658;9.272;2022-11-20T14:00:11;16.10;99.90
41168;DHT22;26906;45.658;9.272;2022-11-20T14:02:40;16.10;99.90
41168;DHT22;26906;45.658;9.272;2022-11-20T14:05:06;15.90;99.90
41168;DHT22;26906;45.658;9.272;2022-11-20T14:07:41;15.90;99.90
41168;DHT22;26906;45.658;9.272;2022-11-20T14:10:40;15.80;99.90
41168;DHT22;26906;45.658;9.272;2022-11-20T14:13:31;15.70;99.90
41168;DHT22;26906;45.658;9.272;2022-11-20T14:15:57;15.70;99.90
41168;DHT22;26906;45.658;9.272;2022-11-20T14:18:26;15.70;99.90
41168;DHT22;26906;45.658;9.272;2022-11-20T14:20:52;15.60;99.90
41168;DHT22;26906;45.658;9.272;2022-11-20T14:23:26;15.60;99.90
41168;DHT22;26906;45.658;9.272;2022-11-20T14:25:52;15.60;99.90
41168;DHT22;26906;45.658;9.272;2022-11-20T14:28:26;15.50;99.90
41168;DHT22;26906;45.658;9.272;2022-11-20T14:30:52;15.50;99.90
41168;DHT22;26906;45.658;9.272;2022-11-20T14:33:18;15.40;99.90
41168;DHT22;26906;45.658;9.272;2022-11-20T14:35:54;15.40;99.90
41168;DHT22;26906;45.658;9.272;2022-11-20T14:38:31;15.30;99.90
41168;DHT22;26906;45.658;9.272;2022-11-20T14:41:08;15.20;99.90
41168;DHT22;26906;45.658;9.272;2022-11-20T14:43:34;15.10;99.90
41168;DHT22;26906;45.658;9.272;2022-11-20T14:46:07;15.10;99.90
41168;DHT22;26906;45.658;9.272;2022-11-20T14:51:08;14.80;99.90
41168;DHT22;26906;45.658;9.272;2022-11-20T14:53:40;14.80;99.90
41168;DHT22;26906;45.658;9.272;2022-11-20T14:56:05;14.80;99.90
41168;DHT22;26906;45.658;9.272;2022-11-20T14:58:34;14.70;99.90
41168;DHT22;26906;45.658;9.272;2022-11-20T15:01:06;14.60;99.90
41168;DHT22;26906;45.658;9.272;2022-11-20T15:03:36;14.50;99.90
41168;DHT22;26906;45.658;9.272;2022-11-20T15:06:04;14.40;99.90
41168;DHT22;26906;45.658;9.272;2022-11-20T15:08:31;14.30;99.90
41168;DHT22;26906;45.658;9.272;2022-11-20T15:10:57;14.30;99.90
41168;DHT22;26906;45.658;9.272;2022-11-20T15:13:34;14.10;99.90
41168;DHT22;26906;45.658;9.272;2022-11-20T15:16:16;14.00;99.90
41168;DHT22;26906;45.658;9.272;2022-11-20T15:18:43;14.00;99.90
41168;DHT22;26906;45.658;9.272;2022-11-20T15:21:14;13.80;99.90
41168;DHT22;26906;45.658;9.272;2022-11-20T15:23:40;13.70;99.90
41168;DHT22;26906;45.658;9.272;2022-11-20T15:26:10;13.70;99.90
41168;DHT22;26906;45.658;9.272;2022-11-20T15:28:39;13.70;99.90
41168;DHT22;26906;45.658;9.272;2022-11-20T15:31:06;13.60;99.90
41168;DHT22;26906;45.658;9.272;2022-11-20T15:33:33;13.50;99.90
41168;DHT22;26906;45.658;9.272;2022-11-20T15:35:59;13.40;99.90
41168;DHT22;26906;45.658;9.272;2022-11-20T15:38:25;13.30;99.90
41168;DHT22;26906;45.658;9.272;2022-11-20T15:40:51;13.20;99.90
41168;DHT22;26906;45.658;9.272;2022-11-20T15:43:17;13.10;99.90
41168;DHT22;26906;45.658;9.272;2022-11-20T15:46:04;13.10;99.90
41168;DHT22;26906;45.658;9.272;2022-11-20T15:48:34;13.10;99.90
41168;DHT22;26906;45.658;9.272;2022-11-20T15:53:43;12.90;99.90
41168;DHT22;26906;45.658;9.272;2022-11-20T15:56:12;12.80;99.90
41168;DHT22;26906;45.658;9.272;2022-11-20T15:58:41;12.70;99.90
41168;DHT22;26906;45.658;9.272;2022-11-20T16:01:12;12.50;99.90
41168;DHT22;26906;45.658;9.272;2022-11-20T16:03:40;12.40;99.90
41168;DHT22;26906;45.658;9.272;2022-11-20T16:06:06;12.30;99.90
41168;DHT22;26906;45.658;9.272;2022-11-20T16:08:31;12.30;99.90
41168;DHT22;26906;45.658;9.272;2022-11-20T16:10:57;12.20;99.90
41168;DHT22;26906;45.658;9.272;2022-11-20T16:13:23;12.10;99.90
41168;DHT22;26906;45.658;9.272;2022-11-20T16:16:07;12.10;99.90
41168;DHT22;26906;45.658;9.272;2022-11-20T16:18:35;12.00;99.90
41168;DHT22;26906;45.658;9.272;2022-11-20T16:21:01;11.80;99.90
41168;DHT22;26906;45.658;9.272;2022-11-20T16:23:27;11.60;99.90
41168;DHT22;26906;45.658;9.272;2022-11-20T16:25:53;11.40;99.90
41168;DHT22;26906;45.658;9.272;2022-11-20T16:28:20;11.40;99.90
41168;DHT22;26906;45.658;9.272;2022-11-20T16:30:49;11.30;99.90
41168;DHT22;26906;45.658;9.272;2022-11-20T16:33:16;11.30;99.90
41168;DHT22;26906;45.658;9.272;2022-11-20T16:35:42;11.40;99.90
41168;DHT22;26906;45.658;9.272;2022-11-20T16:38:08;11.30;99.90
41168;DHT22;26906;45.658;9.272;2022-11-20T16:40:34;11.40;99.90
41168;DHT22;26906;45.658;9.272;2022-11-20T16:43:09;11.30;99.90
41168;DHT22;26906;45.658;9.272;2022-11-20T16:45:40;11.20;99.90
41168;DHT22;26906;45.658;9.272;2022-11-20T16:48:06;11.20;99.90
41168;DHT22;26906;45.658;9.272;2022-11-20T16:50:31;11.20;99.90
41168;DHT22;26906;45.658;9.272;2022-11-20T16:52:57;10.90;99.90
41168;DHT22;26906;45.658;9.272;2022-11-20T16:55:23;10.70;99.90
41168;DHT22;26906;45.658;9.272;2022-11-20T16:57:48;10.60;99.90
41168;DHT22;26906;45.658;9.272;2022-11-20T17:00:14;10.50;99.90
41168;DHT22;26906;45.658;9.272;2022-11-20T17:02:40;10.50;99.90
41168;DHT22;26906;45.658;9.272;2022-11-20T17:05:06;10.50;99.90
41168;DHT22;26906;45.658;9.272;2022-11-20T17:07:35;10.40;99.90
41168;DHT22;26906;45.658;9.272;2022-11-20T17:10:02;10.60;99.90
41168;DHT22;26906;45.658;9.272;2022-11-20T17:12:28;10.60;99.90
41168;DHT22;26906;45.658;9.272;2022-11-20T17:14:53;10.60;99.90
41168;DHT22;26906;45.658;9.272;2022-11-20T17:17:19;10.50;99.90
41168;DHT22;26906;45.658;9.272;2022-11-20T17:19:44;10.40;99.90
41168;DHT22;26906;45.658;9.272;2022-11-20T17:22:10;10.10;99.90
41168;DHT22;26906;45.658;9.272;2022-11-20T17:24:36;10.00;99.90
41168;DHT22;26906;45.658;9.272;2022-11-20T17:27:01;10.00;99.90
41168;DHT22;26906;45.658;9.272;2022-11-20T17:29:27;10.10;99.90
41168;DHT22;26906;45.658;9.272;2022-11-20T17:31:53;9.90;99.90
41168;DHT22;26906;45.658;9.272;2022-11-20T17:34:22;9.90;99.90
41168;DHT22;26906;45.658;9.272;2022-11-20T17:36:48;9.90;99.90
41168;DHT22;26906;45.658;9.272;2022-11-20T17:39:14;9.80;99.90
41168;DHT22;26906;45.658;9.272;2022-11-20T17:41:40;10.00;99.90
41168;DHT22;26906;45.658;9.272;2022-11-20T17:44:09;10.10;99.90
41168;DHT22;26906;45.658;9.272;2022-11-20T17:46:35;9.80;99.90
41168;DHT22;26906;45.658;9.272;2022-11-20T17:49:02;9.60;99.90
41168;DHT22;26906;45.658;9.272;2022-11-20T17:51:30;9.50;99.90
41168;DHT22;26906;45.658;9.272;2022-11-20T17:53:58;9.60;99.90
41168;DHT22;26906;45.658;9.272;2022-11-20T17:56:30;9.60;99.90
41168;DHT22;26906;45.658;9.272;2022-11-20T17:59:15;9.60;99.90
41168;DHT22;26906;45.658;9.272;2022-11-20T18:01:42;9.50;99.90
41168;DHT22;26906;45.658;9.272;2022-11-20T18:04:08;9.40;99.90
41168;DHT22;26906;45.658;9.272;2022-11-20T18:06:34;9.50;99.90
41168;DHT22;26906;45.658;9.272;2022-11-20T18:09:01;9.40;99.90
41168;DHT22;26906;45.658;9.272;2022-11-20T18:11:29;9.30;99.90
41168;DHT22;26906;45.658;9.272;2022-11-20T18:13:56;9.30;99.90
41168;DHT22;26906;45.658;9.272;2022-11-20T18:16:50;9.30;99.90
41168;DHT22;26906;45.658;9.272;2022-11-20T18:19:18;9.40;99.90
41168;DHT22;26906;45.658;9.272;2022-11-20T18:21:44;9.40;99.90
41168;DHT22;26906;45.658;9.272;2022-11-20T18:24:10;9.50;99.90
41168;DHT22;26906;45.658;9.272;2022-11-20T18:26:36;9.40;99.90
41168;DHT22;26906;45.658;9.272;2022-11-20T18:29:03;9.30;99.90
41168;DHT22;26906;45.658;9.272;2022-11-20T18:31:32;9.10;99.90
41168;DHT22;26906;45.658;9.272;2022-11-20T18:33:58;9.10;99.90
41168;DHT22;26906;45.658;9.272;2022-11-20T18:36:26;9.10;99.90
41168;DHT22;26906;45.658;9.272;2022-11-20T18:38:56;9.30;99.90
41168;DHT22;26906;45.658;9.272;2022-11-20T18:41:24;9.40;99.90
41168;DHT22;26906;45.658;9.272;2022-11-20T18:44:17;9.10;99.90
41168;DHT22;26906;45.658;9.272;2022-11-20T18:47:03;9.10;99.90
41168;DHT22;26906;45.658;9.272;2022-11-20T18:49:28;8.90;99.90
41168;DHT22;26906;45.658;9.272;2022-11-20T18:51:54;8.80;99.90
41168;DHT22;26906;45.658;9.272;2022-11-20T18:54:20;9.00;99.90
41168;DHT22;26906;45.658;9.272;2022-11-20T18:56:46;8.90;99.90
41168;DHT22;26906;45.658;9.272;2022-11-20T18:59:12;8.80;99.90
41168;DHT22;26906;45.658;9.272;2022-11-20T19:01:37;8.70;99.90
41168;DHT22;26906;45.658;9.272;2022-11-20T19:04:11;8.80;99.90
41168;DHT22;26906;45.658;9.272;2022-11-20T19:06:38;8.80;99.90
41168;DHT22;26906;45.658;9.272;2022-11-20T19:09:06;8.80;99.90
41168;DHT22;26906;45.658;9.272;2022-11-20T19:11:37;8.80;99.90
41168;DHT22;26906;45.658;9.272;2022-11-20T19:14:03;8.90;99.90
41168;DHT22;26906;45.658;9.272;2022-11-20T19:16:29;9.00;99.90
41168;DHT22;26906;45.658;9.272;2022-11-20T19:18:58;8.80;99.90
41168;DHT22;26906;45.658;9.272;2022-11-20T19:21:24;8.70;99.90
41168;DHT22;26906;45.658;9.272;2022-11-20T19:23:52;8.60;99.90
41168;DHT22;26906;45.658;9.272;2022-11-20T19:26:18;8.60;99.90
41168;DHT22;26906;45.658;9.272;2022-11-20T19:28:44;8.70;99.90
41168;DHT22;26906;45.658;9.272;2022-11-20T19:31:18;8.70;99.90
41168;DHT22;26906;45.658;9.272;2022-11-20T19:33:45;8.70;99.90
41168;DHT22;26906;45.658;9.272;2022-11-20T19:36:16;8.90;99.90
41168;DHT22;26906;45.658;9.272;2022-11-20T19:38:44;8.70;99.90
41168;DHT22;26906;45.658;9.272;2022-11-20T19:41:12;8.90;99.90
41168;DHT22;26906;45.658;9.272;2022-11-20T19:43:38;8.90;99.90
41168;DHT22;26906;45.658;9.272;2022-11-20T19:46:06;8.80;99.90
41168;DHT22;26906;45.658;9.272;2022-11-20T19:48:36;8.70;99.90
41168;DHT22;26906;45.658;9.272;2022-11-20T19:51:29;8.60;99.90
41168;DHT22;26906;45.658;9.272;2022-11-20T19:53:56;8.70;99.90
41168;DHT22;26906;45.658;9.272;2022-11-20T19:56:23;8.40;99.90
41168;DHT22;26906;45.658;9.272;2022-11-20T19:58:49;8.40;99.90
41168;DHT22;26906;45.658;9.272;2022-11-20T20:01:17;8.60;99.90
41168;DHT22;26906;45.658;9.272;2022-11-20T20:03:44;8.30;99.90
41168;DHT22;26906;45.658;9.272;2022-11-20T20:06:21;8.40;99.90
41168;DHT22;26906;45.658;9.272;2022-11-20T20:09:01;8.40;99.90
41168;DHT22;26906;45.658;9.272;2022-11-20T20:11:29;8.50;99.90
41168;DHT22;26906;45.658;9.272;2022-11-20T20:13:55;8.80;99.90
41168;DHT22;26906;45.658;9.272;2022-11-20T20:16:24;8.40;99.90
41168;DHT22;26906;45.658;9.272;2022-11-20T20:18:58;8.30;99.90
41168;DHT22;26906;45.658;9.272;2022-11-20T20:21:25;8.20;99.90
41168;DHT22;26906;45.658;9.272;2022-11-20T20:23:55;8.20;99.90
41168;DHT22;26906;45.658;9.272;2022-11-20T20:26:22;8.00;99.90
41168;DHT22;26906;45.658;9.272;2022-11-20T20:28:48;8.30;99.90
41168;DHT22;26906;45.658;9.272;2022-11-20T20:31:16;8.10;99.90
41168;DHT22;26906;45.658;9.272;2022-11-20T20:33:42;8.20;99.90
41168;DHT22;26906;45.658;9.272;2022-11-20T20:36:10;8.30;99.90
41168;DHT22;26906;45.658;9.272;2022-11-20T20:38:36;8.40;99.90
41168;DHT22;26906;45.658;9.272;2022-11-20T20:41:02;8.30;99.90
41168;DHT22;26906;45.658;9.272;2022-11-20T20:43:28;8.30;99.90
41168;DHT22;26906;45.658;9.272;2022-11-20T20:45:54;8.50;99.90
41168;DHT22;26906;45.658;9.272;2022-11-20T20:48:22;8.10;99.90
41168;DHT22;26906;45.658;9.272;2022-11-20T20:50:56;8.00;99.90
41168;DHT22;26906;45.658;9.272;2022-11-20T20:53:23;7.90;99.90
41168;DHT22;26906;45.658;9.272;2022-11-20T20:56:00;8.00;99.90
41168;DHT22;26906;45.658;9.272;2022-11-20T20:58:27;8.10;99.90
